Arcola, Georgia
Current Conditions -  °F | °C
As of 11:15 AM on Saturday 20 Dec 2014 (Local Time) from KCWV Reporting Station
Drizzle Drizzle  
Wind Chill: 11°   Ceiling: 600
Heat Index: 11°   Visibility: 4mi
Dew Point: 10°   Wind: 0mph
Humidity: 94%   Direction: NA
Pressure: 30.22"   Gusts: NA
Location:  32.2794°N, 81.623°W
Report Text: KCWV 201615Z AUTO 00000KT 4SM DZ BKN006 BKN031 OVC055 11/10 A3022 RMK AO2
Loading
Personal Weather Stations






























Interactive Weather Map New forecast layout! Learn more

10-Day Weather Forecast

Advertisements
Track Severe Weather on mobile